Time;durP1;ratioP1;P1;durP2;ratioP2;P2;SDS_P1;SDS_P2;PMS_P1;PMS_P2;Temp;Humidity;BMP_temperature;BMP_pressure;BME280_temperature;BME280_humidity;BME280_pressure;Samples;Min_cycle;Max_cycle;Signal;HPM_P1;HPM_P2
2021/05/10 00:00:55;;;;;;;5.38;2.45;;;20.90;63.30;;;;;;5030434;28;20057;-45
2021/05/10 00:03:22;;;;;;;2.15;1.70;;;20.80;63.80;;;;;;5030408;28;20392;-46
2021/05/10 00:05:48;;;;;;;2.67;1.80;;;20.80;64.00;;;;;;5030208;28;20030;-44
2021/05/10 00:08:14;;;;;;;3.53;2.20;;;20.70;64.30;;;;;;5028464;28;20017;-46
2021/05/10 00:10:40;;;;;;;4.03;2.05;;;20.60;64.90;;;;;;5030099;28;20052;-46
2021/05/10 00:13:07;;;;;;;3.88;2.42;;;20.50;65.10;;;;;;5030356;28;20100;-45
2021/05/10 00:15:34;;;;;;;2.90;2.13;;;20.40;65.60;;;;;;5030204;28;20025;-45
2021/05/10 00:18:02;;;;;;;3.55;2.30;;;20.40;65.70;;;;;;5029869;28;20112;-46
2021/05/10 00:20:36;;;;;;;3.05;2.03;;;20.30;66.00;;;;;;5030317;28;20048;-46
2021/05/10 00:23:03;;;;;;;4.68;2.15;;;20.30;65.80;;;;;;5030475;28;20070;-46
2021/05/10 00:25:28;;;;;;;2.30;2.10;;;20.30;66.20;;;;;;5029857;28;20022;-46
2021/05/10 00:27:54;;;;;;;2.67;1.83;;;20.20;66.40;;;;;;5029636;28;20099;-46
2021/05/10 00:30:22;;;;;;;5.45;2.10;;;20.20;66.40;;;;;;5030097;28;20021;-46
2021/05/10 00:32:48;;;;;;;2.38;1.98;;;20.20;66.80;;;;;;5028740;28;20037;-46
2021/05/10 00:35:14;;;;;;;3.00;2.13;;;20.10;66.80;;;;;;5029822;28;20099;-46
2021/05/10 00:37:40;;;;;;;3.42;2.63;;;20.10;66.80;;;;;;5029613;28;20124;-45
2021/05/10 00:40:07;;;;;;;2.40;2.20;;;20.10;67.30;;;;;;5028630;28;20452;-45
2021/05/10 00:42:33;;;;;;;2.88;1.80;;;20.00;67.40;;;;;;5029863;28;20112;-45
2021/05/10 00:44:58;;;;;;;2.67;1.95;;;20.00;67.50;;;;;;5029450;28;20108;-46
2021/05/10 00:47:25;;;;;;;2.90;2.20;;;19.90;67.70;;;;;;5028990;28;20056;-45
2021/05/10 00:49:50;;;;;;;3.17;2.20;;;19.80;67.90;;;;;;5025572;28;20165;-47
2021/05/10 00:52:16;;;;;;;3.63;2.10;;;19.80;68.00;;;;;;5029536;28;20486;-45
2021/05/10 00:54:41;;;;;;;5.22;2.40;;;19.80;68.30;;;;;;5029369;28;20044;-46
2021/05/10 00:57:07;;;;;;;2.95;2.40;;;19.70;68.60;;;;;;5029594;28;20552;-45
2021/05/10 00:59:33;;;;;;;3.22;2.15;;;19.60;69.00;;;;;;5029117;28;20017;-48
2021/05/10 01:01:58;;;;;;;4.38;1.98;;;19.50;69.40;;;;;;5028839;28;20025;-45
2021/05/10 01:04:24;;;;;;;3.38;2.47;;;19.40;69.70;;;;;;5029309;28;20083;-45
2021/05/10 01:06:49;;;;;;;2.70;2.25;;;19.40;70.00;;;;;;5029514;28;20032;-45
2021/05/10 01:09:15;;;;;;;2.83;2.10;;;19.30;70.20;;;;;;5029029;28;20029;-45
2021/05/10 01:11:40;;;;;;;5.18;2.00;;;19.30;70.50;;;;;;5029395;28;20557;-45
2021/05/10 01:14:06;;;;;;;4.38;2.17;;;19.20;70.60;;;;;;5029226;28;20028;-46
2021/05/10 01:16:31;;;;;;;3.88;2.50;;;19.20;70.90;;;;;;5029400;28;20029;-45
2021/05/10 01:18:57;;;;;;;2.85;2.20;;;19.20;71.10;;;;;;5028415;28;20033;-44
2021/05/10 01:21:25;;;;;;;3.10;2.25;;;19.10;71.10;;;;;;5028860;28;20091;-44
2021/05/10 01:23:51;;;;;;;3.17;2.08;;;19.20;71.30;;;;;;5028801;28;20487;-45
2021/05/10 01:26:17;;;;;;;3.22;2.70;;;19.10;71.70;;;;;;5027424;28;20095;-47
2021/05/10 01:28:43;;;;;;;3.58;2.20;;;19.10;71.70;;;;;;5027449;28;20030;-46
2021/05/10 01:31:09;;;;;;;6.20;3.00;;;19.10;72.00;;;;;;5028711;28;20037;-44
2021/05/10 01:33:35;;;;;;;2.65;2.45;;;19.00;72.20;;;;;;5028522;28;20022;-44
2021/05/10 01:36:00;;;;;;;4.50;2.40;;;18.90;72.30;;;;;;5028788;28;20581;-45
2021/05/10 01:38:26;;;;;;;3.65;2.28;;;18.90;72.60;;;;;;5028131;28;20037;-46
2021/05/10 01:40:51;;;;;;;2.95;2.35;;;18.90;72.80;;;;;;5027792;28;20036;-45
2021/05/10 01:43:18;;;;;;;1.98;1.77;;;18.90;72.60;;;;;;5028848;28;20021;-45
2021/05/10 01:45:45;;;;;;;5.93;2.22;;;19.00;72.60;;;;;;5028504;28;20028;-44
2021/05/10 01:48:12;;;;;;;3.63;2.47;;;18.90;72.80;;;;;;5028111;28;20022;-44
2021/05/10 01:50:39;;;;;;;2.30;2.10;;;18.80;72.60;;;;;;5021861;28;20395;-45
2021/05/10 01:53:07;;;;;;;4.20;2.85;;;18.80;72.90;;;;;;5027736;28;20022;-45
2021/05/10 01:55:34;;;;;;;3.38;2.35;;;18.80;73.00;;;;;;5027940;28;20356;-45
2021/05/10 01:58:00;;;;;;;4.47;2.10;;;18.80;73.30;;;;;;5026512;28;20025;-45
2021/05/10 02:00:28;;;;;;;4.05;2.35;;;18.80;73.20;;;;;;5026993;28;20555;-48
2021/05/10 02:03:12;;;;;;;3.38;2.42;;;18.80;73.30;;;;;;5028253;28;20112;-45
2021/05/10 02:05:38;;;;;;;3.85;1.98;;;18.70;73.60;;;;;;5028338;28;20021;-44
2021/05/10 02:08:06;;;;;;;3.58;2.10;;;18.70;73.80;;;;;;5027966;28;20033;-47
2021/05/10 02:10:37;;;;;;;3.03;2.25;;;18.70;73.90;;;;;;5028054;28;20574;-44
2021/05/10 02:13:06;;;;;;;3.60;1.88;;;18.60;74.00;;;;;;5027929;28;20044;-44
2021/05/10 02:15:37;;;;;;;2.17;1.95;;;18.60;74.50;;;;;;5028065;28;20056;-45
2021/05/10 02:18:04;;;;;;;5.50;2.70;;;18.60;74.70;;;;;;5027632;28;20329;-45
2021/05/10 02:20:31;;;;;;;3.75;2.63;;;18.50;74.90;;;;;;5028212;28;20028;-44
2021/05/10 02:23:03;;;;;;;2.60;2.20;;;18.50;74.90;;;;;;5028153;28;20025;-45
2021/05/10 02:25:35;;;;;;;2.17;1.92;;;18.60;74.70;;;;;;5027678;28;20029;-45
2021/05/10 02:28:01;;;;;;;2.22;2.03;;;18.60;74.40;;;;;;5027717;28;20029;-45
2021/05/10 02:30:29;;;;;;;4.18;2.78;;;18.70;74.40;;;;;;5027469;28;20033;-47
2021/05/10 02:32:57;;;;;;;3.20;2.03;;;18.70;74.00;;;;;;5025705;28;20033;-44
2021/05/10 02:35:23;;;;;;;6.10;2.92;;;18.70;73.90;;;;;;5027430;28;20335;-46
2021/05/10 02:37:50;;;;;;;5.07;2.08;;;18.80;73.80;;;;;;5026979;28;20572;-45
2021/05/10 02:40:16;;;;;;;4.18;2.20;;;18.90;73.30;;;;;;5024881;28;20033;-45
2021/05/10 02:42:42;;;;;;;4.82;2.28;;;19.00;72.90;;;;;;5026176;28;20017;-44
2021/05/10 02:45:09;;;;;;;3.55;1.98;;;19.00;72.70;;;;;;5026708;28;20014;-44
2021/05/10 02:47:35;;;;;;;10.75;2.50;;;19.00;72.60;;;;;;5026310;28;20056;-46
2021/05/10 02:50:01;;;;;;;3.20;2.50;;;19.00;72.60;;;;;;5027359;28;20053;-46
2021/05/10 02:52:27;;;;;;;4.00;2.30;;;19.00;72.70;;;;;;5025686;28;20138;-45
2021/05/10 02:54:52;;;;;;;3.75;2.10;;;19.10;72.50;;;;;;5026975;28;20037;-45
2021/05/10 02:57:18;;;;;;;3.35;2.30;;;19.10;72.30;;;;;;5026616;28;20032;-45
2021/05/10 02:59:43;;;;;;;6.15;2.42;;;19.10;72.10;;;;;;5025660;28;20017;-45
2021/05/10 03:02:09;;;;;;;4.10;2.05;;;19.20;72.00;;;;;;5027392;28;20021;-45
2021/05/10 03:04:35;;;;;;;10.27;2.00;;;19.20;71.80;;;;;;5027339;28;20030;-45
2021/05/10 03:07:00;;;;;;;2.15;1.80;;;19.20;71.60;;;;;;5027186;28;20430;-45
2021/05/10 03:09:27;;;;;;;3.08;2.30;;;19.30;71.70;;;;;;5026827;28;20038;-45
2021/05/10 03:11:52;;;;;;;3.08;2.28;;;19.30;71.40;;;;;;5027129;28;20034;-47
2021/05/10 03:14:18;;;;;;;2.80;2.50;;;19.30;71.60;;;;;;5009971;28;20028;-45
2021/05/10 03:16:44;;;;;;;3.53;2.72;;;19.30;71.50;;;;;;5027547;28;20522;-46
2021/05/10 03:19:09;;;;;;;3.78;2.17;;;19.30;71.60;;;;;;5025710;28;20087;-45
2021/05/10 03:21:39;;;;;;;4.78;2.22;;;19.30;71.80;;;;;;5027505;28;20401;-45
2021/05/10 03:24:06;;;;;;;2.85;2.15;;;19.30;71.90;;;;;;5027246;28;20049;-45
2021/05/10 03:26:33;;;;;;;3.83;2.08;;;19.30;71.90;;;;;;5029475;28;20021;-45
2021/05/10 03:28:58;;;;;;;3.38;2.38;;;19.30;71.90;;;;;;5030389;28;20480;-45
2021/05/10 03:31:23;;;;;;;2.53;2.33;;;19.20;72.30;;;;;;5030970;28;20037;-46
2021/05/10 03:33:49;;;;;;;3.25;2.60;;;19.10;72.80;;;;;;5030900;28;20552;-46
2021/05/10 03:36:14;;;;;;;4.80;2.35;;;19.10;73.50;;;;;;5029806;28;20083;-45
2021/05/10 03:38:40;;;;;;;4.85;2.15;;;19.00;74.00;;;;;;5030456;28;20022;-45
2021/05/10 03:41:05;;;;;;;3.78;2.17;;;18.90;75.40;;;;;;5028361;28;20507;-46
2021/05/10 03:43:31;;;;;;;2.90;2.50;;;18.80;76.80;;;;;;5030401;28;20086;-45
2021/05/10 03:45:56;;;;;;;3.85;2.50;;;18.50;78.10;;;;;;5030328;28;20040;-46
2021/05/10 03:48:22;;;;;;;5.28;2.40;;;18.40;79.30;;;;;;5030103;28;20151;-45
2021/05/10 03:50:47;;;;;;;3.55;2.78;;;18.20;80.70;;;;;;5030499;28;20516;-44
2021/05/10 03:53:13;;;;;;;3.90;2.30;;;18.10;81.60;;;;;;5024316;28;20030;-45
2021/05/10 03:55:39;;;;;;;5.07;2.92;;;17.90;82.90;;;;;;5030107;28;20041;-45
2021/05/10 03:58:05;;;;;;;4.38;2.80;;;17.90;83.90;;;;;;5029395;28;20025;-47
2021/05/10 04:00:30;;;;;;;4.30;2.35;;;17.70;86.10;;;;;;5030593;28;20036;-45
2021/05/10 04:02:58;;;;;;;4.28;2.67;;;17.60;89.50;;;;;;5029198;28;20025;-45
2021/05/10 04:07:59;;;;;;;4.60;2.63;;;17.50;94.10;;;;;;5029154;28;20021;-45
2021/05/10 04:15:53;;;;;;;2.65;2.45;;;17.30;98.40;;;;;;5028457;28;20044;-45
2021/05/10 04:18:21;;;;;;;2.85;2.65;;;17.30;99.80;;;;;;5028665;28;20507;-45
2021/05/10 04:20:48;;;;;;;6.40;3.13;;;17.20;99.90;;;;;;5027040;28;20018;-46
2021/05/10 04:23:16;;;;;;;5.68;3.00;;;17.20;99.90;;;;;;5029229;28;20013;-45
2021/05/10 04:25:46;;;;;;;6.57;2.72;;;17.20;99.90;;;;;;5029102;28;20052;-46
2021/05/10 04:28:12;;;;;;;4.78;3.00;;;17.20;99.90;;;;;;5028717;28;20475;-45
2021/05/10 04:30:37;;;;;;;4.50;3.22;;;17.20;99.90;;;;;;5028811;28;20078;-45
2021/05/10 04:33:03;;;;;;;5.43;2.90;;;17.10;99.90;;;;;;5029258;28;20109;-44
2021/05/10 04:35:29;;;;;;;3.72;2.58;;;17.10;99.90;;;;;;5029190;28;20203;-45
2021/05/10 04:37:55;;;;;;;3.55;2.95;;;17.20;99.90;;;;;;5026730;28;20029;-44
2021/05/10 04:40:21;;;;;;;3.80;3.10;;;17.20;99.90;;;;;;5027936;28;20155;-45
2021/05/10 04:42:50;;;;;;;4.32;2.83;;;17.30;99.90;;;;;;5029125;28;20218;-46
2021/05/10 04:45:16;;;;;;;5.70;2.88;;;17.30;99.90;;;;;;5027542;28;20033;-44
2021/05/10 04:47:42;;;;;;;5.15;2.50;;;17.40;99.90;;;;;;5028715;28;20017;-45
2021/05/10 04:50:10;;;;;;;4.07;3.10;;;17.50;99.90;;;;;;5029450;28;20491;-45
2021/05/10 04:52:36;;;;;;;4.55;3.03;;;17.50;99.90;;;;;;5027948;28;20054;-45
2021/05/10 04:55:03;;;;;;;3.28;2.90;;;17.60;99.90;;;;;;5028393;28;20033;-44
2021/05/10 04:57:30;;;;;;;5.07;3.20;;;17.60;99.90;;;;;;5028652;28;20507;-45
2021/05/10 04:59:55;;;;;;;3.90;3.00;;;17.70;99.90;;;;;;5032108;28;20120;-45
2021/05/10 05:02:21;;;;;;;6.47;3.88;;;17.70;99.90;;;;;;5029097;28;20064;-45
2021/05/10 05:04:47;;;;;;;4.45;3.55;;;17.70;99.90;;;;;;5027191;28;20033;-45
2021/05/10 05:07:12;;;;;;;6.35;3.28;;;17.70;99.90;;;;;;5028508;28;20021;-45
2021/05/10 05:09:39;;;;;;;7.63;3.75;;;17.70;99.90;;;;;;5029087;28;20173;-45
2021/05/10 05:12:05;;;;;;;6.20;3.08;;;17.70;99.90;;;;;;5029779;28;20086;-45
2021/05/10 05:14:30;;;;;;;3.67;3.17;;;17.70;99.90;;;;;;5029396;28;20084;-45
2021/05/10 05:16:56;;;;;;;3.30;3.00;;;17.70;99.90;;;;;;5029363;28;20029;-46
2021/05/10 05:19:22;;;;;;;4.43;3.53;;;17.80;99.90;;;;;;5028708;28;20120;-45
2021/05/10 05:21:47;;;;;;;5.75;3.60;;;17.80;99.90;;;;;;5028707;28;20029;-45
2021/05/10 05:24:13;;;;;;;4.70;3.75;;;17.80;99.90;;;;;;5027142;28;20388;-44
2021/05/10 05:26:38;;;;;;;3.95;3.40;;;17.90;99.90;;;;;;5027312;28;20017;-44
2021/05/10 05:29:04;;;;;;;4.93;3.58;;;17.90;99.90;;;;;;5029447;28;20021;-45
2021/05/10 05:31:30;;;;;;;6.43;3.30;;;17.80;99.90;;;;;;5042256;28;20057;-44
2021/05/10 05:33:55;;;;;;;4.32;3.28;;;17.90;99.90;;;;;;5047450;28;20029;-44
2021/05/10 05:36:21;;;;;;;6.75;3.35;;;17.80;99.90;;;;;;5047832;28;20516;-45
2021/05/10 05:38:46;;;;;;;5.78;3.67;;;17.80;99.90;;;;;;5046742;28;20194;-45
2021/05/10 05:41:14;;;;;;;5.18;3.03;;;17.90;99.90;;;;;;5041456;28;20029;-45
2021/05/10 05:43:39;;;;;;;4.93;3.55;;;17.90;99.90;;;;;;5028206;28;20022;-45
2021/05/10 05:46:12;;;;;;;3.95;3.05;;;18.10;99.90;;;;;;5028186;28;20051;-45
2021/05/10 05:48:37;;;;;;;5.72;3.30;;;18.20;99.90;;;;;;5027764;28;20029;-45
2021/05/10 05:51:03;;;;;;;4.47;2.83;;;18.30;99.90;;;;;;5028465;28;20068;-44
2021/05/10 05:53:29;;;;;;;3.70;3.20;;;18.40;99.90;;;;;;5029079;28;20226;-45
2021/05/10 05:55:54;;;;;;;3.85;3.13;;;18.40;99.90;;;;;;5027318;28;20222;-45
2021/05/10 05:58:20;;;;;;;7.82;3.20;;;18.50;99.90;;;;;;5027048;28;20060;-45
2021/05/10 06:00:45;;;;;;;3.13;2.80;;;18.60;99.90;;;;;;5027197;28;20449;-45
2021/05/10 06:03:11;;;;;;;6.45;3.15;;;18.60;99.90;;;;;;5027526;28;20446;-44
2021/05/10 06:05:38;;;;;;;6.63;3.20;;;18.70;99.90;;;;;;5030727;28;20029;-45
2021/05/10 06:08:03;;;;;;;4.80;3.20;;;18.90;99.90;;;;;;5030100;28;20033;-46
2021/05/10 06:10:29;;;;;;;3.80;2.95;;;19.10;99.90;;;;;;5028558;28;20022;-45
2021/05/10 06:12:56;;;;;;;3.28;2.63;;;19.30;99.90;;;;;;5030119;28;20040;-45
2021/05/10 06:15:22;;;;;;;3.90;2.85;;;19.40;99.90;;;;;;5027812;28;20458;-45
2021/05/10 06:17:49;;;;;;;3.90;3.00;;;19.60;99.90;;;;;;5027441;28;20087;-45
2021/05/10 06:20:17;;;;;;;7.93;3.20;;;19.90;99.90;;;;;;5028187;28;20029;-45
2021/05/10 06:22:43;;;;;;;5.38;3.10;;;20.10;99.90;;;;;;5023338;28;20026;-45
2021/05/10 06:25:10;;;;;;;5.20;3.25;;;20.30;99.90;;;;;;5025635;28;20436;-45
2021/05/10 06:27:36;;;;;;;6.85;3.15;;;20.50;99.90;;;;;;5046213;28;20124;-46
2021/05/10 06:30:04;;;;;;;3.63;2.70;;;20.60;99.90;;;;;;5030265;28;20144;-45
2021/05/10 06:32:29;;;;;;;3.95;3.10;;;20.80;99.90;;;;;;5028389;28;20033;-44
2021/05/10 06:34:54;;;;;;;4.65;2.70;;;21.00;99.90;;;;;;5027948;28;20238;-45
2021/05/10 06:37:20;;;;;;;3.80;2.63;;;21.10;99.90;;;;;;5027054;28;20033;-44
2021/05/10 06:39:50;;;;;;;5.22;2.92;;;21.20;99.90;;;;;;5027553;28;20110;-44
2021/05/10 06:42:15;;;;;;;3.10;2.25;;;21.40;97.90;;;;;;5027491;28;20013;-45
2021/05/10 06:44:41;;;;;;;4.85;2.97;;;21.50;96.80;;;;;;5027939;28;20032;-45
2021/05/10 06:47:07;;;;;;;3.22;2.78;;;21.50;97.00;;;;;;5027604;28;20022;-45
2021/05/10 06:49:33;;;;;;;4.82;3.10;;;21.50;96.20;;;;;;5027052;28;20211;-46
2021/05/10 06:51:59;;;;;;;7.68;3.30;;;21.60;94.90;;;;;;5034089;28;20056;-45
2021/05/10 06:54:25;;;;;;;3.72;2.63;;;21.60;95.20;;;;;;5047434;28;20045;-47
2021/05/10 06:56:51;;;;;;;3.58;2.45;;;21.70;95.30;;;;;;5048184;28;20029;-48
2021/05/10 06:59:18;;;;;;;5.65;2.65;;;21.90;95.40;;;;;;5047475;28;20100;-47
2021/05/10 07:01:44;;;;;;;8.68;3.33;;;21.80;95.60;;;;;;5043225;28;20116;-46
2021/05/10 07:04:10;;;;;;;5.18;3.30;;;21.90;95.40;;;;;;5030735;28;20054;-47
2021/05/10 07:06:35;;;;;;;6.40;3.20;;;21.90;95.40;;;;;;5031547;28;20064;-47
2021/05/10 07:09:01;;;;;;;6.75;3.13;;;21.80;95.90;;;;;;5030019;28;20057;-45
2021/05/10 07:11:27;;;;;;;7.45;3.30;;;21.60;96.00;;;;;;5030584;28;20026;-45
2021/05/10 07:13:52;;;;;;;3.70;3.35;;;21.70;96.20;;;;;;5031789;28;20060;-46
2021/05/10 07:16:18;;;;;;;6.38;3.38;;;21.70;95.80;;;;;;5031271;28;20356;-45
2021/05/10 07:18:43;;;;;;;5.28;3.22;;;21.70;95.80;;;;;;5043450;28;20475;-45
2021/05/10 07:21:09;;;;;;;8.20;3.50;;;21.70;95.50;;;;;;5051682;28;20536;-46
2021/05/10 07:23:36;;;;;;;5.82;3.35;;;21.80;95.70;;;;;;5051497;28;20053;-45
2021/05/10 07:26:01;;;;;;;4.35;3.55;;;21.90;95.40;;;;;;5051630;28;20021;-46
2021/05/10 07:28:28;;;;;;;6.10;3.38;;;22.10;94.20;;;;;;5049535;28;20099;-45
2021/05/10 07:30:53;;;;;;;3.20;2.80;;;22.10;93.80;;;;;;5050201;28;20037;-46
2021/05/10 07:33:19;;;;;;;6.00;3.00;;;22.20;92.80;;;;;;5029344;28;20037;-46
2021/05/10 07:35:44;;;;;;;3.30;2.70;;;22.40;92.20;;;;;;5032381;28;20021;-45
2021/05/10 07:38:10;;;;;;;4.38;2.78;;;22.40;92.20;;;;;;5030209;28;20387;-44
2021/05/10 07:40:36;;;;;;;4.18;3.20;;;22.50;92.70;;;;;;5030972;28;20061;-46
2021/05/10 07:43:02;;;;;;;6.22;3.40;;;22.40;92.40;;;;;;5030347;28;20044;-45
2021/05/10 07:45:30;;;;;;;4.57;3.13;;;22.50;93.10;;;;;;5031027;28;20475;-46
2021/05/10 07:47:56;;;;;;;5.97;3.38;;;22.80;92.60;;;;;;5030686;28;20075;-48
2021/05/10 07:50:24;;;;;;;5.25;3.15;;;22.90;92.50;;;;;;5029823;28;20033;-46
2021/05/10 07:52:50;;;;;;;6.35;3.13;;;23.00;92.00;;;;;;5031098;28;20029;-46
2021/05/10 07:55:18;;;;;;;4.57;3.05;;;23.20;90.80;;;;;;5030239;28;20044;-47
2021/05/10 07:57:44;;;;;;;6.60;2.70;;;23.40;91.10;;;;;;5028987;28;20049;-45
2021/05/10 08:00:14;;;;;;;3.70;2.75;;;23.70;88.90;;;;;;5030695;28;20044;-45
2021/05/10 08:02:42;;;;;;;;;;;23.90;89.90;;;;;;5030621;28;20034;-45
2021/05/10 08:05:08;;;;;;;6.55;2.97;;;24.10;88.30;;;;;;5030689;28;19955;-45
2021/05/10 08:07:34;;;;;;;2.83;2.42;;;24.30;88.60;;;;;;5030175;28;20037;-46
2021/05/10 08:09:59;;;;;;;3.63;2.45;;;24.40;88.00;;;;;;5030438;28;20025;-46
2021/05/10 08:12:25;;;;;;;2.88;2.30;;;24.60;84.10;;;;;;5029943;28;20026;-46
2021/05/10 08:14:50;;;;;;;3.70;2.30;;;24.80;85.20;;;;;;5030517;28;20042;-46
2021/05/10 08:17:16;;;;;;;4.53;3.00;;;25.00;84.80;;;;;;5029434;28;20032;-45
2021/05/10 08:19:41;;;;;;;5.47;2.70;;;25.40;79.30;;;;;;5029975;28;20033;-47
2021/05/10 08:22:07;;;;;;;3.35;2.05;;;25.70;80.10;;;;;;5030625;28;20021;-46
2021/05/10 08:24:32;;;;;;;2.75;1.98;;;26.30;79.20;;;;;;5030357;28;20148;-46
2021/05/10 08:26:58;;;;;;;2.17;2.00;;;26.80;80.40;;;;;;5030362;28;20029;-47
2021/05/10 08:29:25;;;;;;;3.65;2.00;;;27.20;76.20;;;;;;5029722;28;20045;-45
2021/05/10 08:31:50;;;;;;;2.72;1.90;;;27.60;68.80;;;;;;5026831;28;20312;-46
2021/05/10 08:34:17;;;;;;;3.28;2.42;;;27.60;63.70;;;;;;5029728;28;20544;-46
2021/05/10 08:36:44;;;;;;;3.30;2.17;;;28.10;62.30;;;;;;5029910;28;20056;-46
2021/05/10 08:39:10;;;;;;;5.53;2.22;;;29.10;57.40;;;;;;5028884;28;20075;-46
2021/05/10 08:41:37;;;;;;;2.72;2.00;;;29.00;55.90;;;;;;5029469;28;20028;-47
2021/05/10 08:44:10;;;;;;;3.45;2.22;;;28.40;56.80;;;;;;5027868;28;20029;-46
2021/05/10 08:46:37;;;;;;;6.88;2.00;;;28.10;57.70;;;;;;5029489;28;20410;-46
2021/05/10 08:49:03;;;;;;;3.88;1.92;;;27.60;58.30;;;;;;5029090;28;20018;-46
2021/05/10 08:51:30;;;;;;;4.28;1.73;;;28.40;57.60;;;;;;5029597;28;20026;-46
2021/05/10 08:53:56;;;;;;;3.70;2.00;;;29.60;55.90;;;;;;5028451;28;20029;-47
2021/05/10 08:56:23;;;;;;;6.97;2.88;;;30.30;53.10;;;;;;5029427;28;20032;-45
2021/05/10 08:58:49;;;;;;;9.20;2.40;;;31.30;50.80;;;;;;5028338;28;20566;-45
2021/05/10 09:01:16;;;;;;;5.35;2.40;;;31.80;48.10;;;;;;5026256;28;20108;-45
2021/05/10 09:03:44;;;;;;;5.95;2.03;;;32.10;48.30;;;;;;5029231;28;20041;-46
2021/05/10 09:06:12;;;;;;;4.88;1.92;;;31.60;45.90;;;;;;5029555;28;20022;-46
2021/05/10 09:08:45;;;;;;;4.30;1.90;;;31.70;47.40;;;;;;5028916;28;20400;-46
2021/05/10 09:11:19;;;;;;;5.85;1.90;;;31.20;47.40;;;;;;5029038;28;20026;-46
2021/05/10 09:13:46;;;;;;;5.10;2.45;;;31.60;48.00;;;;;;5027612;28;20243;-49
2021/05/10 09:16:14;;;;;;;3.33;2.15;;;31.60;46.10;;;;;;5030486;28;20041;-45
2021/05/10 09:18:50;;;;;;;2.22;1.95;;;31.20;46.10;;;;;;5045036;28;20379;-46
2021/05/10 09:21:18;;;;;;;4.07;2.03;;;31.20;46.30;;;;;;5049327;28;20104;-47
2021/05/10 09:23:44;;;;;;;4.72;2.25;;;31.50;46.20;;;;;;5048651;28;20021;-46
2021/05/10 09:26:13;;;;;;;4.72;1.73;;;32.00;45.00;;;;;;5037869;28;20033;-46
2021/05/10 09:28:43;;;;;;;4.68;2.10;;;32.80;43.20;;;;;;5028099;28;20375;-44
2021/05/10 09:31:12;;;;;;;3.08;1.88;;;32.40;42.50;;;;;;5029368;28;20127;-45
2021/05/10 09:33:46;;;;;;;2.70;1.90;;;32.00;43.10;;;;;;5029149;28;20171;-46
2021/05/10 09:36:39;;;;;;;3.58;2.10;;;30.60;44.40;;;;;;5044796;28;20021;-46
2021/05/10 09:39:28;;;;;;;5.80;2.17;;;30.80;43.60;;;;;;5048288;28;20251;-46
2021/05/10 09:42:03;;;;;;;4.15;1.77;;;30.90;44.50;;;;;;5049083;28;20035;-46
2021/05/10 09:44:45;;;;;;;7.45;2.30;;;31.50;43.80;;;;;;5009855;28;20491;-47
2021/05/10 09:47:11;;;;;;;3.78;2.25;;;31.50;42.60;;;;;;5021686;28;20029;-46
2021/05/10 09:49:48;;;;;;;6.10;1.88;;;32.50;43.30;;;;;;5028993;28;20055;-47
2021/05/10 09:52:22;;;;;;;3.45;1.95;;;33.70;40.50;;;;;;5029366;28;20028;-46
2021/05/10 09:55:00;;;;;;;6.50;2.25;;;34.30;40.00;;;;;;5029334;28;20048;-49
2021/05/10 09:57:26;;;;;;;4.35;1.98;;;33.20;40.00;;;;;;5028213;28;20072;-46
2021/05/10 10:00:13;;;;;;;4.30;2.00;;;34.00;40.20;;;;;;5029066;28;20063;-46
2021/05/10 10:02:39;;;;;;;7.68;2.20;;;34.20;41.00;;;;;;5028602;28;20028;-47
2021/05/10 10:05:05;;;;;;;5.00;2.42;;;35.60;37.50;;;;;;5027585;28;20504;-49
2021/05/10 10:07:32;;;;;;;4.97;1.83;;;35.00;37.60;;;;;;5028010;28;20029;-46
2021/05/10 10:10:00;;;;;;;3.00;1.42;;;35.90;36.90;;;;;;5028714;28;20029;-46
2021/05/10 10:12:25;;;;;;;1.73;1.63;;;38.00;34.30;;;;;;5028182;28;20384;-47
2021/05/10 10:14:51;;;;;;;3.90;1.50;;;37.00;36.10;;;;;;5028222;28;20029;-47
2021/05/10 10:17:16;;;;;;;2.92;1.30;;;36.30;34.40;;;;;;5027547;28;20635;-46
2021/05/10 10:19:43;;;;;;;3.92;1.42;;;34.20;37.40;;;;;;5027813;28;20057;-47
2021/05/10 10:22:08;;;;;;;2.75;1.35;;;34.10;37.30;;;;;;5025408;28;20028;-45
2021/05/10 10:24:35;;;;;;;4.15;1.38;;;35.10;36.30;;;;;;5027500;28;20029;-46
2021/05/10 10:27:01;;;;;;;4.30;1.50;;;32.90;37.80;;;;;;5027821;28;20036;-46
2021/05/10 10:29:29;;;;;;;3.83;1.45;;;31.80;39.70;;;;;;5027278;28;20026;-45
2021/05/10 10:31:57;;;;;;;2.80;1.50;;;32.10;39.80;;;;;;5027912;28;20483;-44
2021/05/10 10:34:34;;;;;;;4.00;1.30;;;33.30;39.20;;;;;;5028220;28;20029;-47
2021/05/10 10:37:02;;;;;;;1.73;1.50;;;33.10;39.40;;;;;;5031334;28;20033;-45
2021/05/10 10:39:30;;;;;;;1.95;1.55;;;34.10;38.50;;;;;;5030992;28;20035;-47
2021/05/10 10:41:57;;;;;;;2.13;1.75;;;35.60;39.60;;;;;;5030599;28;20375;-50
2021/05/10 10:44:42;;;;;;;2.20;1.63;;;35.70;35.30;;;;;;5029221;28;20113;-46
2021/05/10 10:47:11;;;;;;;2.53;1.70;;;36.00;35.90;;;;;;5030709;28;20024;-46
2021/05/10 10:49:37;;;;;;;4.70;1.65;;;35.40;35.00;;;;;;5030937;28;20141;-46
2021/05/10 10:52:15;;;;;;;5.65;1.60;;;35.10;34.20;;;;;;5032088;28;20025;-46
2021/05/10 10:54:40;;;;;;;1.75;1.35;;;34.40;36.30;;;;;;5037828;28;20036;-46
2021/05/10 10:57:06;;;;;;;2.92;1.48;;;34.50;36.50;;;;;;5052237;28;20021;-46
2021/05/10 10:59:39;;;;;;;1.52;1.40;;;34.00;35.00;;;;;;5033335;28;20083;-48
2021/05/10 11:02:18;;;;;;;4.68;1.88;;;32.90;37.20;;;;;;5032422;28;20364;-45
2021/05/10 11:04:46;;;;;;;4.00;1.60;;;32.80;37.30;;;;;;5031045;28;20072;-45
2021/05/10 11:07:12;;;;;;;2.83;1.67;;;33.10;36.40;;;;;;5030294;28;20344;-46
2021/05/10 11:09:47;;;;;;;7.40;1.75;;;33.60;37.60;;;;;;5031322;28;20108;-47
2021/05/10 11:12:45;;;;;;;3.63;1.80;;;33.40;36.40;;;;;;5032079;28;20025;-45
2021/05/10 11:15:11;;;;;;;3.67;1.50;;;33.60;36.70;;;;;;5031526;28;20363;-46
2021/05/10 11:17:53;;;;;;;5.97;1.52;;;33.30;37.40;;;;;;5030830;28;20041;-46
2021/05/10 11:20:18;;;;;;;1.67;1.38;;;34.20;36.40;;;;;;5029760;28;20117;-45
2021/05/10 11:22:47;;;;;;;3.47;1.50;;;34.80;36.50;;;;;;5029659;28;20133;-47
2021/05/10 11:25:35;;;;;;;1.90;1.70;;;34.70;35.20;;;;;;5028754;28;20498;-45
2021/05/10 11:28:40;;;;;;;3.40;1.52;;;33.10;35.00;;;;;;5029507;28;20045;-45
2021/05/10 11:31:10;;;;;;;3.38;1.60;;;32.60;36.00;;;;;;5030876;28;20289;-46
2021/05/10 11:33:54;;;;;;;1.98;1.50;;;33.20;36.00;;;;;;5030991;28;20037;-46
2021/05/10 11:36:27;;;;;;;2.20;1.60;;;33.90;36.40;;;;;;5029228;28;20029;-46
2021/05/10 11:38:58;;;;;;;2.47;1.30;;;34.10;36.30;;;;;;5028867;28;20029;-46
2021/05/10 11:41:31;;;;;;;2.30;1.67;;;32.70;37.20;;;;;;5028147;28;20067;-46
2021/05/10 11:43:58;;;;;;;3.25;1.70;;;32.50;37.80;;;;;;5029896;28;20101;-47
2021/05/10 11:46:42;;;;;;;3.72;1.45;;;32.20;39.70;;;;;;5028266;28;20009;-45
2021/05/10 11:49:09;;;;;;;5.68;1.50;;;31.50;39.40;;;;;;5029581;28;20029;-45
2021/05/10 11:51:40;;;;;;;4.57;1.42;;;31.40;39.00;;;;;;5029426;28;20498;-45
2021/05/10 11:54:10;;;;;;;2.33;1.30;;;32.30;41.80;;;;;;5030324;28;20096;-46
2021/05/10 11:56:41;;;;;;;3.00;1.35;;;32.50;39.20;;;;;;5027940;28;20022;-45
2021/05/10 11:59:38;;;;;;;10.25;1.88;;;31.70;40.90;;;;;;5029754;28;20099;-45
2021/05/10 12:02:14;;;;;;;1.50;1.23;;;31.00;39.70;;;;;;5029859;28;20029;-46
2021/05/10 12:04:42;;;;;;;5.25;1.50;;;30.90;41.30;;;;;;5030449;28;20479;-44
2021/05/10 12:07:08;;;;;;;2.70;1.65;;;30.60;40.30;;;;;;5029870;28;20051;-45
2021/05/10 12:09:44;;;;;;;2.40;1.27;;;30.40;41.60;;;;;;5029086;28;20026;-44
2021/05/10 12:12:13;;;;;;;4.45;1.27;;;30.30;41.60;;;;;;5027965;28;20387;-46
2021/05/10 12:14:49;;;;;;;4.80;1.90;;;30.50;42.60;;;;;;5030604;28;20014;-46
2021/05/10 12:17:20;;;;;;;5.30;1.60;;;30.50;41.40;;;;;;5029774;28;20018;-45
2021/05/10 12:20:06;;;;;;;2.53;1.50;;;30.50;41.20;;;;;;5029732;28;20100;-44
2021/05/10 12:22:35;;;;;;;4.57;1.55;;;30.20;42.20;;;;;;5021548;28;20398;-44
2021/05/10 12:25:09;;;;;;;2.90;1.23;;;30.70;41.80;;;;;;5028243;28;20022;-45
2021/05/10 12:27:37;;;;;;;6.18;1.75;;;30.40;40.70;;;;;;5028383;28;20084;-45
2021/05/10 12:30:12;;;;;;;3.22;1.33;;;29.90;41.40;;;;;;5029093;28;20299;-45
2021/05/10 12:32:42;;;;;;;2.40;1.30;;;29.40;43.50;;;;;;5028341;28;20088;-45
2021/05/10 12:35:09;;;;;;;4.30;1.30;;;29.40;42.80;;;;;;5028687;28;20021;-45
2021/05/10 12:37:46;;;;;;;5.57;1.73;;;29.00;44.00;;;;;;5028208;28;20106;-44
2021/05/10 12:40:14;;;;;;;4.20;1.70;;;28.90;43.00;;;;;;5027580;28;20025;-45
2021/05/10 12:42:40;;;;;;;9.55;1.67;;;29.00;43.90;;;;;;5029846;28;20136;-45
2021/05/10 12:45:12;;;;;;;3.28;1.58;;;28.40;43.90;;;;;;5027813;28;20027;-46
2021/05/10 12:47:41;;;;;;;6.35;1.63;;;28.30;44.90;;;;;;5028690;28;20026;-46
2021/05/10 12:50:32;;;;;;;3.37;1.10;;;28.10;44.40;;;;;;5029892;28;20026;-45
2021/05/10 12:53:01;;;;;;;;;;;28.30;44.80;;;;;;5028728;28;20261;-44
2021/05/10 12:55:26;;;;;;;3.53;1.15;;;28.20;45.40;;;;;;5025991;28;20003;-45
2021/05/10 12:57:52;;;;;;;6.05;1.67;;;28.00;45.10;;;;;;5025819;28;20128;-45
2021/05/10 13:00:37;;;;;;;3.50;1.10;;;27.80;44.30;;;;;;5027609;28;20060;-46